createdAt,value
2018-09-04T00:00:43.508Z,99112.96
2018-09-04T00:03:11.230Z,99115.66
2018-09-04T00:05:39.021Z,99120.64
2018-09-04T00:08:06.721Z,99126.12
2018-09-04T00:10:34.444Z,99126.90
2018-09-04T00:13:02.374Z,99122.52
2018-09-04T00:15:30.137Z,99124.53
2018-09-04T00:17:57.909Z,99121.82
2018-09-04T00:20:25.672Z,99123.08
2018-09-04T00:22:53.436Z,99113.57
2018-09-04T00:25:21.225Z,99122.66
2018-09-04T00:27:49.050Z,99131.55
2018-09-04T00:30:16.847Z,99130.91
2018-09-04T00:32:44.586Z,99144.86
2018-09-04T00:35:12.429Z,99154.98
2018-09-04T00:37:40.204Z,99158.42
2018-09-04T00:40:08.141Z,99144.31
2018-09-04T00:42:35.903Z,99143.79
2018-09-04T00:45:03.843Z,99134.70
2018-09-04T00:47:31.615Z,99131.59
2018-09-04T00:49:59.317Z,99125.80
2018-09-04T00:52:27.094Z,99120.08
2018-09-04T00:54:54.773Z,99128.63
2018-09-04T00:57:22.498Z,99130.31
2018-09-04T00:59:50.233Z,99144.83
2018-09-04T01:02:18.036Z,99146.20
2018-09-04T01:04:46.893Z,99139.89
2018-09-04T01:07:14.908Z,99140.73
2018-09-04T01:09:42.621Z,99142.36
2018-09-04T01:12:10.398Z,99147.30
2018-09-04T01:14:38.086Z,99148.11
2018-09-04T01:17:06.034Z,99148.13
2018-09-04T01:19:33.756Z,99158.81
2018-09-04T01:22:01.566Z,99167.88
2018-09-04T01:24:29.315Z,99174.64
2018-09-04T01:26:57.080Z,99191.09
2018-09-04T01:29:24.848Z,99192.20
2018-09-04T01:31:52.540Z,99200.69
2018-09-04T01:34:20.351Z,99202.05
2018-09-04T01:36:48.163Z,99202.94
2018-09-04T01:39:15.854Z,99204.52
2018-09-04T01:41:43.586Z,99206.11
2018-09-04T01:44:11.354Z,99202.66
2018-09-04T01:46:39.334Z,99193.08
2018-09-04T01:49:07.114Z,99192.95
2018-09-04T01:51:34.857Z,99186.36
2018-09-04T01:54:02.578Z,99191.84
2018-09-04T01:56:30.379Z,99195.67
2018-09-04T01:58:58.140Z,99193.20
2018-09-04T02:01:26.008Z,99192.19
2018-09-04T02:03:53.803Z,99182.27
2018-09-04T02:06:21.530Z,99180.11
2018-09-04T02:08:49.274Z,99188.61
2018-09-04T02:11:17.011Z,99191.91
2018-09-04T02:13:44.684Z,99177.87
2018-09-04T02:16:12.441Z,99174.05
2018-09-04T02:18:40.215Z,99172.39
2018-09-04T02:21:07.947Z,99175.86
2018-09-04T02:23:35.656Z,99165.55
2018-09-04T02:26:03.450Z,99161.11
2018-09-04T02:28:31.193Z,99148.57
2018-09-04T02:30:58.987Z,99135.45
2018-09-04T02:33:26.769Z,99140.95
2018-09-04T02:35:54.493Z,99133.05
2018-09-04T02:38:22.118Z,99135.73
2018-09-04T02:40:49.911Z,99130.00
2018-09-04T02:43:17.666Z,99128.66
2018-09-04T02:45:45.362Z,99126.70
2018-09-04T02:48:13.126Z,99129.45
2018-09-04T02:50:40.828Z,99124.55
2018-09-04T02:53:08.610Z,99132.77
2018-09-04T02:55:36.404Z,99125.91
2018-09-04T02:58:04.193Z,99132.77
2018-09-04T03:00:31.921Z,99128.38
2018-09-04T03:02:59.665Z,99129.18
2018-09-04T03:05:27.386Z,99121.52
2018-09-04T03:07:55.186Z,99113.28
2018-09-04T03:10:22.991Z,99112.47
2018-09-04T03:12:50.803Z,99113.87
2018-09-04T03:15:18.501Z,99110.52
2018-09-04T03:17:46.267Z,99112.95
2018-09-04T03:20:13.910Z,99103.59
2018-09-04T03:22:41.675Z,99105.41
2018-09-04T03:25:09.455Z,99101.58
2018-09-04T03:27:37.191Z,99105.66
2018-09-04T03:30:05.030Z,99097.97
2018-09-04T03:32:32.820Z,99100.22
2018-09-04T03:35:00.606Z,99092.26
2018-09-04T03:37:28.338Z,99090.84
2018-09-04T03:39:56.075Z,99087.34
2018-09-04T03:42:23.893Z,99074.85
2018-09-04T03:44:51.691Z,99072.10
2018-09-04T03:47:19.469Z,99071.84
2018-09-04T03:49:47.161Z,99072.06
2018-09-04T03:52:14.936Z,99061.47
2018-09-04T03:54:42.802Z,99058.45
2018-09-04T03:57:10.567Z,99052.45
2018-09-04T03:59:38.291Z,99051.34
2018-09-04T04:02:06.371Z,99052.42
2018-09-04T04:04:34.075Z,99050.77
2018-09-04T04:07:01.751Z,99046.14
2018-09-04T04:09:29.554Z,99042.61
2018-09-04T04:11:57.311Z,99030.55
2018-09-04T04:14:25.078Z,99031.91
2018-09-04T04:16:52.969Z,99027.23
2018-09-04T04:19:20.729Z,99022.27
2018-09-04T04:21:48.495Z,99023.31
2018-09-04T04:24:16.283Z,99024.14
2018-09-04T04:26:44.055Z,99022.23
2018-09-04T04:29:11.884Z,99025.47
2018-09-04T04:31:39.707Z,99035.69
2018-09-04T04:34:07.439Z,99039.01
2018-09-04T04:36:35.166Z,99040.37
2018-09-04T04:39:03.283Z,99041.72
2018-09-04T04:41:31.014Z,99047.91
2018-09-04T04:43:58.835Z,99046.02
2018-09-04T04:46:26.588Z,99047.39
2018-09-04T04:48:54.286Z,99058.31
2018-09-04T04:51:21.997Z,99067.44
2018-09-04T04:53:49.753Z,99063.20
2018-09-04T04:56:17.469Z,99070.38
2018-09-04T04:58:45.176Z,99075.81
2018-09-04T05:01:12.962Z,99078.69
2018-09-04T05:03:40.704Z,99076.33
2018-09-04T05:06:08.406Z,99079.91
2018-09-04T05:08:36.211Z,99072.22
2018-09-04T05:11:04.018Z,99075.77
2018-09-04T05:13:31.657Z,99074.05
2018-09-04T05:15:59.445Z,99069.79
2018-09-04T05:18:27.154Z,99064.08
2018-09-04T05:20:55.005Z,99064.37
2018-09-04T05:23:22.859Z,99072.61
2018-09-04T05:25:50.638Z,99084.15
2018-09-04T05:28:18.362Z,99088.22
2018-09-04T05:30:46.126Z,99087.86
2018-09-04T05:33:16.634Z,99093.71
2018-09-04T05:35:46.739Z,99091.20
2018-09-04T05:38:14.458Z,99085.92
2018-09-04T05:40:42.449Z,99087.19
2018-09-04T05:43:12.697Z,99087.99
2018-09-04T05:45:40.953Z,99091.81
2018-09-04T05:48:10.621Z,99100.08
2018-09-04T05:50:38.500Z,99104.39
2018-09-04T05:53:06.392Z,99106.53
2018-09-04T05:55:34.053Z,99106.17
2018-09-04T05:58:02.263Z,99107.22
2018-09-04T06:00:33.383Z,99103.59
2018-09-04T06:03:01.202Z,99098.88
2018-09-04T06:05:28.914Z,99099.04
2018-09-04T06:07:56.654Z,99095.99
2018-09-04T06:10:24.341Z,99096.78
2018-09-04T06:12:52.043Z,99098.36
2018-09-04T06:15:19.805Z,99100.34
2018-09-04T06:17:52.870Z,99091.04
2018-09-04T06:20:20.612Z,99092.82
2018-09-04T06:22:48.381Z,99103.58
2018-09-04T06:25:16.203Z,99102.46
2018-09-04T06:27:43.944Z,99105.05
2018-09-04T06:30:11.709Z,99089.86
2018-09-04T06:32:39.433Z,99086.94
2018-09-04T06:35:07.214Z,99086.20
2018-09-04T06:37:34.998Z,99094.81
2018-09-04T06:40:02.876Z,99089.50
2018-09-04T06:42:30.604Z,99078.48
2018-09-04T06:44:58.339Z,99084.89
2018-09-04T06:47:26.058Z,99078.23
2018-09-04T06:49:53.921Z,99087.07
2018-09-04T06:52:21.617Z,99096.33
2018-09-04T06:54:49.373Z,99100.86
2018-09-04T06:57:17.144Z,99115.27
2018-09-04T06:59:44.821Z,99109.91
2018-09-04T07:02:12.622Z,99107.80
2018-09-04T07:04:40.330Z,99106.44
2018-09-04T07:07:08.376Z,99099.48
2018-09-04T07:09:36.148Z,99096.26
2018-09-04T07:12:03.910Z,99093.59
2018-09-04T07:14:31.788Z,99088.19
2018-09-04T07:16:59.660Z,99096.40
2018-09-04T07:19:27.427Z,99101.54
2018-09-04T07:21:55.149Z,99098.70
2018-09-04T07:24:22.907Z,99098.30
2018-09-04T07:26:50.679Z,99094.86
2018-09-04T07:29:18.488Z,99095.48
2018-09-04T07:31:46.356Z,99091.59
2018-09-04T07:34:14.045Z,99089.96
2018-09-04T07:36:41.784Z,99094.02
2018-09-04T07:39:10.722Z,99091.56
2018-09-04T07:41:38.894Z,99097.92
2018-09-04T07:44:06.939Z,99094.44
2018-09-04T07:46:34.781Z,99091.63
2018-09-04T07:49:02.680Z,99093.77
2018-09-04T07:51:30.575Z,99093.31
2018-09-04T07:53:58.416Z,99089.60
2018-09-04T07:56:26.229Z,99089.48
2018-09-04T07:58:53.973Z,99092.03
2018-09-04T08:01:21.896Z,99089.30
2018-09-04T08:03:49.772Z,99092.49
2018-09-04T08:06:17.526Z,99097.62
2018-09-04T08:08:46.270Z,99092.49
2018-09-04T08:11:14.131Z,99093.72
2018-09-04T08:13:41.985Z,99083.55
2018-09-04T08:16:09.851Z,99087.76
2018-09-04T08:18:38.017Z,99087.83
2018-09-04T08:21:06.069Z,99084.41
2018-09-04T08:23:34.754Z,99087.72
2018-09-04T08:26:02.477Z,99086.65
2018-09-04T08:28:30.199Z,99085.26
2018-09-04T08:30:58.024Z,99085.08
2018-09-04T08:33:25.824Z,99081.77
2018-09-04T08:35:53.713Z,99076.14
2018-09-04T08:38:21.474Z,99079.06
2018-09-04T08:40:49.198Z,99079.41
2018-09-04T08:43:17.116Z,99072.59
2018-09-04T08:45:44.816Z,99084.78
2018-09-04T08:48:18.024Z,99085.67
2018-09-04T08:50:45.946Z,99082.91
2018-09-04T08:53:14.090Z,99076.59
2018-09-04T08:55:41.779Z,99073.19
2018-09-04T08:58:09.666Z,99061.90
2018-09-04T09:00:37.505Z,99065.16
2018-09-04T09:03:05.491Z,99070.92
2018-09-04T09:05:33.430Z,99072.13
2018-09-04T09:08:01.212Z,99069.95
2018-09-04T09:10:29.057Z,99069.29
2018-09-04T09:12:56.848Z,99067.54
2018-09-04T09:15:24.629Z,99071.89
2018-09-04T09:17:52.428Z,99069.69
2018-09-04T09:20:20.232Z,99067.97
2018-09-04T09:22:48.035Z,99061.35
2018-09-04T09:25:15.706Z,99054.56
2018-09-04T09:27:43.620Z,99049.48
2018-09-04T09:30:12.100Z,99051.44
2018-09-04T09:32:39.814Z,99058.70
2018-09-04T09:35:07.615Z,99055.45
2018-09-04T09:37:35.422Z,99054.47
2018-09-04T09:40:03.405Z,99057.27
2018-09-04T09:42:31.278Z,99058.42
2018-09-04T09:44:59.018Z,99050.27
2018-09-04T09:47:26.846Z,99046.00
2018-09-04T09:49:54.589Z,99048.59
2018-09-04T09:52:22.354Z,99043.69
2018-09-04T09:54:50.086Z,99045.12
2018-09-04T09:57:17.934Z,99042.86
2018-09-04T09:59:45.739Z,99031.41
2018-09-04T10:02:18.269Z,99035.95
2018-09-04T10:04:46.105Z,99043.96
2018-09-04T10:07:13.796Z,99043.70
2018-09-04T10:09:41.702Z,99042.97
2018-09-04T10:12:09.567Z,99044.58
2018-09-04T10:14:37.426Z,99052.24
2018-09-04T10:17:05.317Z,99054.98
2018-09-04T10:19:33.154Z,99053.28
2018-09-04T10:22:01.140Z,99049.98
2018-09-04T10:24:29.015Z,99055.14
2018-09-04T10:26:56.915Z,99044.64
2018-09-04T10:29:24.854Z,99039.84
2018-09-04T10:31:52.608Z,99032.64
2018-09-04T10:34:20.341Z,99037.04
2018-09-04T10:36:48.137Z,99040.71
2018-09-04T10:39:21.605Z,99028.12
2018-09-04T10:41:49.290Z,99019.80
2018-09-04T10:44:17.059Z,99028.05
2018-09-04T10:46:45.286Z,99023.73
2018-09-04T10:49:13.027Z,99019.77
2018-09-04T10:51:40.730Z,99029.03
2018-09-04T10:54:08.573Z,99026.13
2018-09-04T10:56:36.362Z,99020.52
2018-09-04T10:59:04.095Z,99023.80
2018-09-04T11:01:31.834Z,99017.43
2018-09-04T11:03:59.614Z,99006.24
2018-09-04T11:06:27.285Z,99006.42
2018-09-04T11:08:55.030Z,99006.16
2018-09-04T11:11:22.715Z,99005.59
2018-09-04T11:13:50.415Z,99004.41
2018-09-04T11:16:18.175Z,99010.15
2018-09-04T11:18:45.865Z,99009.50
2018-09-04T11:21:13.646Z,99002.84
2018-09-04T11:23:41.402Z,98999.97
2018-09-04T11:26:09.037Z,98997.67
2018-09-04T11:28:40.323Z,99009.05
2018-09-04T11:31:08.038Z,99006.38
2018-09-04T11:33:35.781Z,99005.48
2018-09-04T11:36:03.453Z,99004.68
2018-09-04T11:38:31.181Z,98993.71
2018-09-04T11:40:58.915Z,98990.58
2018-09-04T11:43:26.647Z,98992.92
2018-09-04T11:45:54.362Z,98995.19
2018-09-04T11:48:22.051Z,98985.67
2018-09-04T11:50:49.724Z,98982.98
2018-09-04T11:53:17.439Z,98974.86
2018-09-04T11:55:45.260Z,98971.28
2018-09-04T11:58:12.922Z,98968.48
2018-09-04T12:00:43.713Z,98957.78
2018-09-04T12:03:13.056Z,98960.72
2018-09-04T12:05:40.975Z,98959.64
2018-09-04T12:08:09.018Z,98944.88
2018-09-04T12:10:36.964Z,98943.04
2018-09-04T12:13:05.144Z,98937.81
2018-09-04T12:15:32.997Z,98934.80
2018-09-04T12:18:00.810Z,98927.36
2018-09-04T12:20:34.686Z,98914.35
2018-09-04T12:23:02.468Z,98915.64
2018-09-04T12:25:30.364Z,98921.76
2018-09-04T12:27:58.106Z,98910.82
2018-09-04T12:30:25.816Z,98911.92
2018-09-04T12:32:53.540Z,98907.66
2018-09-04T12:35:21.488Z,98901.61
2018-09-04T12:37:49.278Z,98897.11
2018-09-04T12:40:17.087Z,98897.31
2018-09-04T12:42:45.297Z,98884.20
2018-09-04T12:45:13.074Z,98886.34
2018-09-04T12:47:40.838Z,98886.13
2018-09-04T12:50:08.642Z,98882.64
2018-09-04T12:52:36.329Z,98893.50
2018-09-04T12:55:04.249Z,98884.91
2018-09-04T12:57:32.185Z,98891.25
2018-09-04T12:59:59.988Z,98884.71
2018-09-04T13:02:27.741Z,98887.91
2018-09-04T13:04:55.469Z,98881.62
2018-09-04T13:07:23.183Z,98883.42
2018-09-04T13:09:50.887Z,98884.08
2018-09-04T13:12:18.622Z,98877.73
2018-09-04T13:14:46.414Z,98874.77
2018-09-04T13:17:14.093Z,98861.33
2018-09-04T13:19:41.918Z,98867.37
2018-09-04T13:22:09.669Z,98876.66
2018-09-04T13:24:37.383Z,98874.75
2018-09-04T13:27:05.117Z,98874.25
2018-09-04T13:29:32.811Z,98871.75
2018-09-04T13:32:00.632Z,98881.20
2018-09-04T13:34:28.424Z,98881.58
2018-09-04T13:36:56.133Z,98859.47
2018-09-04T13:39:23.826Z,98861.57
2018-09-04T13:41:51.539Z,98861.70
2018-09-04T13:44:19.268Z,98866.02
2018-09-04T13:46:46.950Z,98861.91
2018-09-04T13:49:14.694Z,98870.55
2018-09-04T13:51:42.399Z,98871.71
2018-09-04T13:54:10.176Z,98869.10
2018-09-04T13:56:37.884Z,98877.39
2018-09-04T13:59:05.698Z,98877.45
2018-09-04T14:01:33.432Z,98877.17
2018-09-04T14:04:01.423Z,98878.73
2018-09-04T14:06:30.061Z,98873.16
2018-09-04T14:08:57.836Z,98871.96
2018-09-04T14:11:25.534Z,98873.45
2018-09-04T14:13:53.213Z,98870.42
2018-09-04T14:16:23.059Z,98871.84
2018-09-04T14:18:51.013Z,98870.26
2018-09-04T14:21:18.723Z,98873.27
2018-09-04T14:23:46.491Z,98869.55
2018-09-04T14:26:14.236Z,98866.09
2018-09-04T14:28:41.969Z,98866.78
2018-09-04T14:31:09.702Z,98868.78
2018-09-04T14:33:37.501Z,98864.73
2018-09-04T14:36:05.286Z,98864.47
2018-09-04T14:38:32.917Z,98871.19
2018-09-04T14:41:00.710Z,98862.48
2018-09-04T14:43:28.459Z,98863.25
2018-09-04T14:45:56.199Z,98854.17
2018-09-04T14:48:24.841Z,98857.28
2018-09-04T14:50:52.890Z,98859.09
2018-09-04T14:53:20.614Z,98861.53
2018-09-04T14:55:48.366Z,98853.56
2018-09-04T14:58:16.290Z,98854.88
2018-09-04T15:00:44.018Z,98855.24
2018-09-04T15:03:11.787Z,98857.44
2018-09-04T15:05:39.494Z,98853.72
2018-09-04T15:08:07.165Z,98865.73
2018-09-04T15:10:34.921Z,98856.73
2018-09-04T15:13:02.691Z,98871.95
2018-09-04T15:15:30.471Z,98866.20
2018-09-04T15:17:58.239Z,98874.08
2018-09-04T15:20:25.953Z,98865.52
2018-09-04T15:22:54.424Z,98871.20
2018-09-04T15:25:22.275Z,98868.88
2018-09-04T15:27:49.964Z,98866.66
2018-09-04T15:30:17.725Z,98865.63
2018-09-04T15:32:45.606Z,98871.12
2018-09-04T15:35:13.327Z,98865.91
2018-09-04T15:37:41.050Z,98868.23
2018-09-04T15:40:08.822Z,98867.44
2018-09-04T15:42:36.609Z,98864.30
2018-09-04T15:45:04.453Z,98867.43
2018-09-04T15:47:32.194Z,98862.48
2018-09-04T15:49:59.868Z,98864.23
2018-09-04T15:52:27.561Z,98859.48
2018-09-04T15:54:55.394Z,98850.42
2018-09-04T15:57:23.116Z,98851.45
2018-09-04T15:59:50.798Z,98850.61
2018-09-04T16:02:18.513Z,98858.86
2018-09-04T16:04:46.241Z,98859.13
2018-09-04T16:07:13.945Z,98863.83
2018-09-04T16:09:41.693Z,98864.29
2018-09-04T16:12:09.418Z,98871.54
2018-09-04T16:14:37.125Z,98879.38
2018-09-04T16:17:04.907Z,98876.16
2018-09-04T16:19:32.632Z,98887.83
2018-09-04T16:22:00.510Z,98884.63
2018-09-04T16:24:28.274Z,98880.13
2018-09-04T16:26:55.958Z,98884.20
2018-09-04T16:29:23.700Z,98888.05
2018-09-04T16:31:51.448Z,98886.50
2018-09-04T16:34:19.237Z,98885.81
2018-09-04T16:36:46.901Z,98879.08
2018-09-04T16:39:14.669Z,98886.97
2018-09-04T16:41:42.420Z,98884.17
2018-09-04T16:44:10.134Z,98890.52
2018-09-04T16:46:37.901Z,98887.06
2018-09-04T16:49:05.653Z,98889.30
2018-09-04T16:51:33.338Z,98888.14
2018-09-04T16:54:01.059Z,98890.33
2018-09-04T16:56:28.790Z,98891.30
2018-09-04T16:58:56.513Z,98882.91
2018-09-04T17:01:24.386Z,98887.96
2018-09-04T17:03:52.089Z,98892.84
2018-09-04T17:06:19.809Z,98897.75
2018-09-04T17:08:47.664Z,98899.31
2018-09-04T17:11:15.425Z,98901.39
2018-09-04T17:13:43.112Z,98908.69
2018-09-04T17:16:10.865Z,98900.70
2018-09-04T17:18:38.575Z,98896.97
2018-09-04T17:21:06.337Z,98899.52
2018-09-04T17:23:34.100Z,98895.23
2018-09-04T17:26:01.906Z,98898.48
2018-09-04T17:28:29.627Z,98891.27
2018-09-04T17:30:57.528Z,98898.52
2018-09-04T17:33:25.222Z,98898.48
2018-09-04T17:35:53.064Z,98899.12
2018-09-04T17:38:20.847Z,98900.88
2018-09-04T17:40:48.525Z,98906.33
2018-09-04T17:43:16.223Z,98908.44
2018-09-04T17:45:44.041Z,98927.55
2018-09-04T17:48:11.849Z,98928.66
2018-09-04T17:50:39.557Z,98944.00
2018-09-04T17:53:07.328Z,98959.53
2018-09-04T17:55:35.010Z,98954.91
2018-09-04T17:58:02.719Z,98959.80
2018-09-04T18:00:30.481Z,98954.95
2018-09-04T18:02:58.309Z,98964.11
2018-09-04T18:05:26.029Z,98969.03
2018-09-04T18:07:53.777Z,98971.36
2018-09-04T18:10:21.517Z,98968.87
2018-09-04T18:12:49.210Z,98965.80
2018-09-04T18:15:16.925Z,98954.48
2018-09-04T18:17:44.616Z,98950.56
2018-09-04T18:20:12.334Z,98955.36
2018-09-04T18:22:40.327Z,98965.39
2018-09-04T18:25:08.100Z,98960.27
2018-09-04T18:27:35.837Z,98957.66
2018-09-04T18:30:03.688Z,98955.09
2018-09-04T18:32:31.383Z,98959.58
2018-09-04T18:34:59.156Z,98960.33
2018-09-04T18:37:26.907Z,98961.92
2018-09-04T18:39:54.976Z,98962.05
2018-09-04T18:42:23.008Z,98959.80
2018-09-04T18:44:50.784Z,98953.97
2018-09-04T18:47:18.488Z,98956.34
2018-09-04T18:49:46.201Z,98954.96
2018-09-04T18:52:13.894Z,98945.91
2018-09-04T18:54:41.649Z,98947.64
2018-09-04T18:57:09.417Z,98942.70
2018-09-04T18:59:37.247Z,98945.20
2018-09-04T19:02:05.050Z,98947.75
2018-09-04T19:04:32.801Z,98948.57
2018-09-04T19:07:00.774Z,98950.16
2018-09-04T19:09:28.476Z,98955.73
2018-09-04T19:11:56.180Z,98962.02
2018-09-04T19:14:23.942Z,98960.75
2018-09-04T19:16:51.680Z,98952.99
2018-09-04T19:19:19.369Z,98955.90
2018-09-04T19:21:47.109Z,98959.00
2018-09-04T19:24:15.611Z,98959.63
2018-09-04T19:26:43.341Z,98961.91
2018-09-04T19:29:11.116Z,98960.80
2018-09-04T19:31:38.805Z,98960.67
2018-09-04T19:34:06.504Z,98959.89
2018-09-04T19:36:34.241Z,98960.69
2018-09-04T19:39:01.954Z,98965.45
2018-09-04T19:41:29.633Z,98963.79
2018-09-04T19:43:57.360Z,98963.11
2018-09-04T19:46:25.017Z,98975.30
2018-09-04T19:48:52.728Z,98979.83
2018-09-04T19:51:20.463Z,98989.32
2018-09-04T19:53:48.148Z,98987.36
2018-09-04T19:56:15.950Z,98983.59
2018-09-04T19:58:43.707Z,98985.48
2018-09-04T20:01:11.518Z,98990.29
2018-09-04T20:03:39.225Z,98995.86
2018-09-04T20:06:06.981Z,98997.66
2018-09-04T20:08:34.669Z,99002.67
2018-09-04T20:11:02.374Z,99018.14
2018-09-04T20:13:30.149Z,99017.63
2018-09-04T20:15:57.891Z,99018.75
2018-09-04T20:18:25.596Z,99007.52
2018-09-04T20:20:53.324Z,98996.73
2018-09-04T20:23:21.017Z,98992.33
2018-09-04T20:25:48.728Z,98990.95
2018-09-04T20:28:16.408Z,98998.62
2018-09-04T20:30:44.218Z,99000.01
2018-09-04T20:33:11.948Z,99007.33
2018-09-04T20:35:39.689Z,99012.80
2018-09-04T20:38:07.431Z,99026.06
2018-09-04T20:40:35.220Z,99028.91
2018-09-04T20:43:02.935Z,99037.11
2018-09-04T20:45:30.671Z,99035.22
2018-09-04T20:47:58.415Z,99042.34
2018-09-04T20:50:26.315Z,99037.99
2018-09-04T20:52:54.405Z,99032.77
2018-09-04T20:55:22.118Z,99034.41
2018-09-04T20:58:00.949Z,99025.30
2018-09-04T21:00:39.941Z,99020.20
2018-09-04T21:03:18.941Z,99010.62
2018-09-04T21:05:57.982Z,98999.48
2018-09-04T21:08:43.528Z,99003.27
2018-09-04T21:11:11.325Z,99007.27
2018-09-04T21:13:39.083Z,99004.52
2018-09-04T21:16:06.895Z,99004.94
2018-09-04T21:18:34.684Z,99008.67
2018-09-04T21:21:02.464Z,99016.41
2018-09-04T21:23:30.327Z,99018.17
2018-09-04T21:25:58.192Z,99031.24
2018-09-04T21:28:25.972Z,99025.08
2018-09-04T21:30:53.819Z,99018.34
2018-09-04T21:38:50.365Z,99022.10
2018-09-04T21:41:18.229Z,99027.97
2018-09-04T21:43:45.902Z,99028.84
2018-09-04T21:46:13.646Z,99020.52
2018-09-04T21:48:41.494Z,99014.76
2018-09-04T21:51:09.231Z,99007.14
2018-09-04T21:53:37.074Z,98999.81
2018-09-04T21:56:04.841Z,99004.49
2018-09-04T21:58:32.517Z,99011.43
2018-09-04T22:01:00.390Z,99005.77
2018-09-04T22:03:28.200Z,99009.59
2018-09-04T22:05:56.063Z,99006.90
2018-09-04T22:08:23.882Z,99014.75
2018-09-04T22:10:51.599Z,99010.64
2018-09-04T22:13:19.395Z,98996.19
2018-09-04T22:15:47.262Z,98983.53
2018-09-04T22:18:14.977Z,98987.23
2018-09-04T22:20:42.653Z,98989.95
2018-09-04T22:23:10.399Z,98981.94
2018-09-04T22:25:38.130Z,98980.66
2018-09-04T22:28:05.948Z,98977.49
2018-09-04T22:30:33.823Z,98975.92
2018-09-04T22:33:01.573Z,98978.81
2018-09-04T22:35:29.347Z,98980.37
2018-09-04T22:37:57.089Z,98980.64
2018-09-04T22:40:24.821Z,98973.64
2018-09-04T22:42:52.566Z,98973.48
2018-09-04T22:45:20.418Z,98970.70
2018-09-04T22:47:48.180Z,98966.38
2018-09-04T22:50:21.393Z,98969.98
2018-09-04T22:52:49.119Z,98957.80
2018-09-04T22:55:16.850Z,98955.12
2018-09-04T22:57:44.730Z,98950.98
2018-09-04T23:00:13.632Z,98951.09
2018-09-04T23:02:41.340Z,98935.63
2018-09-04T23:05:09.130Z,98937.89
2018-09-04T23:07:36.859Z,98940.70
2018-09-04T23:10:04.859Z,98936.92
2018-09-04T23:12:32.634Z,98936.48
2018-09-04T23:15:00.386Z,98930.25
2018-09-04T23:17:28.205Z,98932.91
2018-09-04T23:19:56.150Z,98942.22
2018-09-04T23:22:23.930Z,98939.18
2018-09-04T23:24:51.659Z,98939.55
2018-09-04T23:27:19.439Z,98938.38
2018-09-04T23:29:47.226Z,98925.11
2018-09-04T23:32:14.933Z,98936.67
2018-09-04T23:34:42.720Z,98928.70
2018-09-04T23:37:10.543Z,98936.59
2018-09-04T23:39:38.265Z,98944.34
2018-09-04T23:42:06.058Z,98943.88
2018-09-04T23:44:33.822Z,98947.59
2018-09-04T23:47:01.883Z,98950.75
2018-09-04T23:49:29.762Z,98955.34
2018-09-04T23:51:57.610Z,98950.22
2018-09-04T23:54:25.814Z,98944.86
2018-09-04T23:56:53.726Z,98931.45
2018-09-04T23:59:21.489Z,98936.77
